Impacts TAF Board INFO
FOR SITUATIONAL AWARENESS. NOT TO BE USED FOR FLIGHT PLANNING PURPOSES.
IDs:

KMSP - Minneapolis-St Paul, MN, US

Issued at 0527 UTC 13 Dec 2017
Updated at 0716 UTC 13 Dec 2017
Potential Impact None Slight Moderate High
Time0653Z 13/08Z 13/09Z 13/10Z 13/11Z 13/12Z 13/13Z 13/14Z 13/15Z 13/16Z 13/17Z 13/18Z 13/19Z 13/20Z>>
Type OBS PRVL PRVL
  [TEMP]  
PRVL
  [TEMP]  
PRVL
  [TEMP]  
PRVL
  [TEMP]  
PRVL PRVL PRVL PRVL PRVL PRVL PRVL PRVL
VIS 10 >6 6
  [5]  
6
  [5]  
6
  [5]  
6
  [5]  
6 6 >6 >6 >6 >6 >6 >6
CIG 230 40 15
  [12]  
15
  [12]  
15
  [12]  
15
  [12]  
15 15 8 8 8 15 15 15
Cover BKN OVC OVC
  [OVC]  
OVC
  [OVC]  
OVC
  [OVC]  
OVC
  [OVC]  
OVC OVC OVC OVC OVC OVC OVC OVC
FltCat VFR VFR MVFR
  [MVFR]  
MVFR
  [MVFR]  
MVFR
  [MVFR]  
MVFR
  [MVFR]  
MVFR MVFR IFR IFR IFR MVFR MVFR MVFR
WX -- -- -SN BR
  [-FZDZ BR]  
-SN BR
  [-FZDZ BR]  
-SN BR
  [-FZDZ BR]  
-SN BR
  [-FZDZ BR]  
-SN BR -SN BR VCSH VCSH VCSH -- -- --
WDir 130 150 290
[290]
290
[290]
290
[290]
290
[290]
290 290 320 320 320 320 320 320
WSpd 7 4 6
  [6]  
6
  [6]  
6
  [6]  
6
  [6]  
6 6 16 16 16 18 18 18
WGst -- -- --
  [--]  
--
  [--]  
--
  [--]  
--
  [--]  
-- -- 29 29 29 30 30 30

Raw TAF
KMSP 130527Z 1306/1412 15004KT P6SM BKN040 OVC070
  FM130900 29006KT 6SM -SN BR OVC015
  TEMPO 1309/1313 5SM -FZDZ BR OVC012
  FM131500 32016G29KT P6SM VCSH OVC008
  FM131800 32018G30KT P6SM OVC015
  FM140000 34013G19KT P6SM OVC025
  FM140200 33009KT P6SM OVC025


Raw METAR
KMSP 130653Z 13007KT 10SM SCT100 BKN230 M03/M04 A2951 RMK AO2 SLP006 T10331044
KMSP 130553Z 14006KT 10SM SCT060 BKN230 M03/M04 A2957 RMK AO2 PRESFR SLP025 4/002 T10331044 11028 21067 410281144 58058
KMSP 130546Z 14006KT 10SM BKN060 BKN230 M03/M04 A2958 RMK AO2 PRESFR T10331044
KMSP 130453Z 13006KT 10SM FEW070 BKN230 M03/M05 A2963 RMK AO2 SLP047 T10331050
KMSP 130438Z 14006KT 10SM BKN230 M04/M05 A2964 RMK AO2 T10391050

METAR Board
Radar Display
Forecast Discussion

FOR SITUATIONAL AWARENESS. NOT TO BE USED FOR FLIGHT PLANNING PURPOSES.